createdAt,value
2019-03-26T00:00:23.282Z,100941.64
2019-03-26T00:05:29.134Z,100960.03
2019-03-26T00:10:34.744Z,100960.03
2019-03-26T00:15:40.261Z,100962.78
2019-03-26T00:20:45.765Z,100973.73
2019-03-26T00:25:51.733Z,100981.11
2019-03-26T00:30:57.222Z,100977.56
2019-03-26T00:36:03.161Z,100979.91
2019-03-26T00:41:08.704Z,100982.72
2019-03-26T00:46:14.272Z,100982.90
2019-03-26T00:51:19.868Z,100996.98
2019-03-26T00:56:25.394Z,100993.67
2019-03-26T01:01:31.124Z,101006.25
2019-03-26T01:06:36.862Z,101013.14
2019-03-26T01:11:42.353Z,101017.38
2019-03-26T01:16:47.870Z,101021.45
2019-03-26T01:21:54.402Z,101016.68
2019-03-26T01:27:00.122Z,101019.61
2019-03-26T01:32:05.865Z,101012.23
2019-03-26T01:37:11.398Z,101015.16
2019-03-26T01:42:16.929Z,101011.70
2019-03-26T01:47:22.587Z,101010.33
2019-03-26T01:52:28.382Z,101011.64
2019-03-26T01:57:33.849Z,101014.98
2019-03-26T02:02:39.464Z,101016.70
2019-03-26T02:07:44.980Z,101021.12
2019-03-26T02:12:50.714Z,101016.94
2019-03-26T02:17:56.324Z,101020.23
2019-03-26T02:23:01.889Z,101023.40
2019-03-26T02:28:07.456Z,101027.12
2019-03-26T02:33:13.045Z,101029.98
2019-03-26T02:38:18.581Z,101027.58
2019-03-26T02:43:24.296Z,101032.98
2019-03-26T02:48:29.822Z,101034.78
2019-03-26T02:53:36.605Z,101037.42
2019-03-26T02:58:42.342Z,101039.03
2019-03-26T03:03:47.869Z,101033.41
2019-03-26T03:08:53.403Z,101038.73
2019-03-26T03:14:00.135Z,101029.75
2019-03-26T03:19:05.703Z,101030.71
2019-03-26T03:24:14.166Z,101030.38
2019-03-26T03:29:18.723Z,101026.24
2019-03-26T03:34:24.785Z,101030.63
2019-03-26T03:39:30.160Z,101043.83
2019-03-26T03:44:35.724Z,101047.42
2019-03-26T03:49:41.646Z,101061.77
2019-03-26T03:54:47.718Z,101066.34
2019-03-26T03:59:53.582Z,101058.53
2019-03-26T04:04:59.033Z,101067.37
2019-03-26T04:10:04.961Z,101067.61
2019-03-26T04:15:10.409Z,101067.03
2019-03-26T04:20:15.936Z,101067.40
2019-03-26T04:25:21.382Z,101070.71
2019-03-26T04:30:31.532Z,101074.93
2019-03-26T04:35:37.076Z,101069.02
2019-03-26T04:40:42.996Z,101084.59
2019-03-26T04:45:48.589Z,101083.12
2019-03-26T04:50:54.562Z,101090.15
2019-03-26T04:56:00.112Z,101091.24
2019-03-26T05:01:05.660Z,101088.09
2019-03-26T05:06:11.190Z,101087.30
2019-03-26T05:11:16.682Z,101106.34
2019-03-26T05:16:22.219Z,101110.36
2019-03-26T05:21:27.720Z,101102.70
2019-03-26T05:26:33.267Z,101095.98
2019-03-26T05:31:39.343Z,101098.30
2019-03-26T05:36:51.180Z,101100.22
2019-03-26T05:41:52.620Z,101098.83
2019-03-26T05:47:01.453Z,101101.12
2019-03-26T05:52:05.812Z,101103.89
2019-03-26T05:57:11.436Z,101096.37
2019-03-26T06:02:18.101Z,101096.28
2019-03-26T06:07:23.914Z,101092.61
2019-03-26T06:12:32.103Z,101097.42
2019-03-26T06:17:37.867Z,101096.61
2019-03-26T06:22:43.432Z,101102.83
2019-03-26T06:27:49.046Z,101108.95
2019-03-26T06:32:54.662Z,101113.95
2019-03-26T06:38:00.177Z,101118.47
2019-03-26T06:43:05.793Z,101125.80
2019-03-26T06:48:11.536Z,101131.06
2019-03-26T06:53:17.063Z,101132.66
2019-03-26T06:58:22.701Z,101143.50
2019-03-26T07:03:28.272Z,101151.54
2019-03-26T07:08:34.999Z,101160.61
2019-03-26T07:13:40.617Z,101155.41
2019-03-26T07:18:46.177Z,101158.69
2019-03-26T07:23:52.135Z,101149.69
2019-03-26T07:28:58.244Z,101156.48
2019-03-26T07:34:07.021Z,101164.47
2019-03-26T07:39:11.070Z,101173.86
2019-03-26T07:44:16.661Z,101174.44
2019-03-26T07:49:24.227Z,101180.20
2019-03-26T07:54:32.630Z,101194.47
2019-03-26T07:59:37.534Z,101205.01
2019-03-26T08:04:43.295Z,101204.45
2019-03-26T08:09:50.612Z,101205.08
2019-03-26T08:14:59.415Z,101203.13
2019-03-26T08:20:05.374Z,101204.61
2019-03-26T08:25:11.630Z,101196.06
2019-03-26T08:30:17.361Z,101193.83
2019-03-26T08:35:23.084Z,101195.08
2019-03-26T08:40:29.030Z,101198.86
2019-03-26T08:45:35.866Z,101178.09
2019-03-26T08:50:41.564Z,101180.67
2019-03-26T08:55:47.070Z,101185.02
2019-03-26T09:00:52.834Z,101196.80
2019-03-26T09:05:58.632Z,101197.31
2019-03-26T09:11:04.516Z,101204.48
2019-03-26T09:16:10.031Z,101190.97
2019-03-26T09:21:15.796Z,101203.16
2019-03-26T09:26:21.496Z,101191.23
2019-03-26T09:31:27.568Z,101189.06
2019-03-26T09:36:34.319Z,101184.34
2019-03-26T09:41:40.060Z,101188.36
2019-03-26T09:46:45.685Z,101183.20
2019-03-26T09:51:51.276Z,101182.23
2019-03-26T09:56:57.716Z,101164.52
2019-03-26T10:02:03.251Z,101151.85
2019-03-26T10:07:20.759Z,101162.64
2019-03-26T10:12:18.036Z,101150.19
2019-03-26T10:17:25.756Z,101138.25
2019-03-26T10:22:31.402Z,101133.74
2019-03-26T10:27:36.961Z,101138.53
2019-03-26T10:32:43.586Z,101135.06
2019-03-26T10:37:49.418Z,101121.69
2019-03-26T10:42:59.084Z,101124.16
2019-03-26T10:48:04.978Z,101123.21
2019-03-26T10:53:10.956Z,101126.05
2019-03-26T10:58:17.715Z,101128.05
2019-03-26T11:03:23.363Z,101117.02
2019-03-26T11:08:29.043Z,101106.45
2019-03-26T11:13:34.984Z,101127.30
2019-03-26T11:18:40.690Z,101110.98
2019-03-26T11:23:46.340Z,101118.75
2019-03-26T11:28:51.938Z,101111.05
2019-03-26T11:33:57.770Z,101117.52
2019-03-26T11:39:05.094Z,101109.86
2019-03-26T11:44:11.188Z,101110.22
2019-03-26T11:49:17.820Z,101109.62
2019-03-26T11:54:23.896Z,101113.23
2019-03-26T11:59:30.048Z,101097.74
2019-03-26T12:04:36.176Z,101091.73
2019-03-26T12:09:46.539Z,101093.59
2019-03-26T12:15:04.736Z,101091.78
2019-03-26T12:20:10.631Z,101067.54
2019-03-26T12:25:16.336Z,101065.75
2019-03-26T12:30:38.301Z,101078.17
2019-03-26T12:35:44.072Z,101068.70
2019-03-26T12:40:50.448Z,101067.23
2019-03-26T12:45:56.352Z,101072.89
2019-03-26T12:51:03.030Z,101070.10
2019-03-26T12:56:08.850Z,101055.83
2019-03-26T13:01:14.572Z,101070.49
2019-03-26T13:06:20.148Z,101073.81
2019-03-26T13:11:26.151Z,101070.10
2019-03-26T13:16:31.784Z,101063.05
2019-03-26T13:21:37.726Z,101061.80
2019-03-26T13:26:44.546Z,101062.62
2019-03-26T13:31:50.096Z,101050.91
2019-03-26T13:36:55.871Z,101036.09
2019-03-26T13:42:01.744Z,101033.50
2019-03-26T13:47:12.391Z,101028.95
2019-03-26T13:52:17.953Z,101023.86
2019-03-26T13:57:23.742Z,101023.68
2019-03-26T14:02:29.322Z,101022.33
2019-03-26T14:07:35.010Z,101024.97
2019-03-26T14:12:40.644Z,101028.61
2019-03-26T14:17:46.286Z,101025.86
2019-03-26T14:22:51.840Z,101015.23
2019-03-26T14:27:57.496Z,101023.18
2019-03-26T14:33:03.058Z,101022.38
2019-03-26T14:38:08.852Z,101030.83
2019-03-26T14:43:14.417Z,101023.05
2019-03-26T14:48:20.139Z,101024.89
2019-03-26T14:53:25.736Z,101034.23
2019-03-26T14:58:33.448Z,101032.67
2019-03-26T15:03:39.217Z,101042.87
2019-03-26T15:08:44.937Z,101044.37
2019-03-26T15:13:50.841Z,101044.23
2019-03-26T15:18:56.414Z,101039.67
2019-03-26T15:24:01.921Z,101047.33
2019-03-26T15:29:08.658Z,101048.31
2019-03-26T15:34:19.280Z,101028.11
2019-03-26T15:39:25.552Z,101044.41
2019-03-26T15:44:31.316Z,101052.83
2019-03-26T15:49:37.000Z,101054.28
2019-03-26T15:54:42.894Z,101047.44
2019-03-26T15:59:48.643Z,101061.69
2019-03-26T16:04:54.600Z,101058.66
2019-03-26T16:10:00.468Z,101053.22
2019-03-26T16:15:06.986Z,101059.33
2019-03-26T16:20:12.738Z,101048.39
2019-03-26T16:25:18.600Z,101048.39
2019-03-26T16:30:24.292Z,101055.86
2019-03-26T16:35:29.942Z,101052.11
2019-03-26T16:40:35.597Z,101052.64
2019-03-26T16:45:41.136Z,101054.71
2019-03-26T16:50:46.787Z,101058.22
2019-03-26T16:55:52.435Z,101065.88
2019-03-26T17:00:58.230Z,101069.47
2019-03-26T17:06:04.251Z,101079.70
2019-03-26T17:11:09.946Z,101088.17
2019-03-26T17:16:15.617Z,101087.16
2019-03-26T17:21:21.233Z,101075.80
2019-03-26T17:26:26.938Z,101071.11
2019-03-26T17:31:32.748Z,101074.63
2019-03-26T17:36:38.674Z,101084.61
2019-03-26T17:41:44.412Z,101086.81
2019-03-26T17:46:50.116Z,101089.45
2019-03-26T17:51:55.919Z,101087.69
2019-03-26T17:57:02.292Z,101092.98
2019-03-26T18:02:07.935Z,101095.02
2019-03-26T18:07:13.568Z,101099.58
2019-03-26T18:12:30.126Z,101106.43
2019-03-26T18:17:26.820Z,101108.78
2019-03-26T18:22:32.936Z,101110.53
2019-03-26T18:27:38.392Z,101111.44
2019-03-26T18:32:44.044Z,101122.32
2019-03-26T18:37:49.926Z,101119.47
2019-03-26T18:42:55.572Z,101128.56
2019-03-26T18:48:02.548Z,101129.84
2019-03-26T18:53:09.319Z,101141.40
2019-03-26T18:58:15.038Z,101138.47
2019-03-26T19:03:21.711Z,101136.27
2019-03-26T19:08:27.257Z,101143.66
2019-03-26T19:13:33.127Z,101163.58
2019-03-26T19:18:38.714Z,101157.66
2019-03-26T19:23:45.506Z,101157.61
2019-03-26T19:28:56.562Z,101167.84
2019-03-26T19:34:02.268Z,101174.16
2019-03-26T19:39:08.791Z,101176.90
2019-03-26T19:44:14.922Z,101185.02
2019-03-26T19:49:20.518Z,101188.59
2019-03-26T19:54:26.212Z,101186.63
2019-03-26T19:59:31.964Z,101190.02
2019-03-26T20:04:37.541Z,101199.55
2019-03-26T20:09:43.120Z,101222.31
2019-03-26T20:14:52.074Z,101211.69
2019-03-26T20:19:57.967Z,101217.02
2019-03-26T20:25:03.680Z,101226.53
2019-03-26T20:30:09.893Z,101230.64
2019-03-26T20:35:16.103Z,101232.16
2019-03-26T20:40:21.970Z,101243.61
2019-03-26T20:45:27.783Z,101248.56
2019-03-26T20:50:33.251Z,101252.67
2019-03-26T20:55:39.002Z,101256.00
2019-03-26T21:00:44.628Z,101260.25
2019-03-26T21:05:50.584Z,101268.19
2019-03-26T21:10:56.119Z,101272.34
2019-03-26T21:16:01.789Z,101272.34
2019-03-26T21:21:07.349Z,101271.70
2019-03-26T21:26:13.290Z,101275.32
2019-03-26T21:31:19.450Z,101277.04
2019-03-26T21:36:26.911Z,101281.48
2019-03-26T21:41:32.624Z,101281.98
2019-03-26T21:46:38.505Z,101279.87
2019-03-26T21:51:44.547Z,101277.17
2019-03-26T21:56:50.178Z,101282.70
2019-03-26T22:01:55.885Z,101281.88
2019-03-26T22:07:01.635Z,101284.70
2019-03-26T22:12:07.402Z,101285.73
2019-03-26T22:17:13.126Z,101293.89
2019-03-26T22:22:18.655Z,101302.06
2019-03-26T22:27:24.523Z,101303.14
2019-03-26T22:32:30.027Z,101308.55
2019-03-26T22:37:35.681Z,101309.70
2019-03-26T22:42:41.769Z,101325.80
2019-03-26T22:47:47.289Z,101326.82
2019-03-26T22:52:52.883Z,101325.20
2019-03-26T22:57:58.632Z,101340.20
2019-03-26T23:03:04.782Z,101342.00
2019-03-26T23:08:10.352Z,101343.58
2019-03-26T23:13:16.151Z,101356.29
2019-03-26T23:18:21.899Z,101353.65
2019-03-26T23:23:27.871Z,101353.23
2019-03-26T23:28:34.123Z,101352.09
2019-03-26T23:33:39.735Z,101358.92
2019-03-26T23:38:45.419Z,101362.77
2019-03-26T23:43:50.993Z,101358.68
2019-03-26T23:48:56.624Z,101365.22
2019-03-26T23:54:03.348Z,101369.45
2019-03-26T23:59:08.839Z,101369.97
